1894 NOT_NAMED (1894011S13057)


IBTrACS version v04r00. Visit IBTrACS website for data access.
Please direct all questions to the IBTrACS Q and A forum

Storm track - Intensity - Wind Radii - Intensity Data - Source Data - All data

Summary Information

Storm ID 1894011S13057
Start Jan 11 06Z
End Jan 19 06Z
ATCF IDs
Track status Best track data.

Storm track plot

Map of storm track

Intensity plots

No Intensity information for this storm


Radial wind information

No radial wind information for this storm


Position and Intensity Table

BASIN ISO_TIME_________ NATURE LAT LON
degrees north degrees east
SI 1894-01-11 06:00:00 NR -13.00 56.60
SI 09:00:00 NR -13.16 56.50
SI 12:00:00 NR -13.31 56.39
SI 15:00:00 NR -13.47 56.29
SI 18:00:00 NR -13.63 56.20
SI 21:00:00 NR -13.79 56.11
SI 1894-01-12 00:00:00 NR -13.96 56.03
SI 03:00:00 NR -14.13 55.96
SI 06:00:00 NR -14.30 55.90
SI 09:00:00 NR -14.48 55.85
SI 12:00:00 NR -14.66 55.82
SI 15:00:00 NR -14.85 55.80
SI 18:00:00 NR -15.04 55.80
SI 21:00:00 NR -15.23 55.80
SI 1894-01-13 00:00:00 NR -15.42 55.82
SI 03:00:00 NR -15.61 55.85
SI 06:00:00 NR -15.80 55.90
SI 09:00:00 NR -15.98 55.95
SI 12:00:00 NR -16.15 56.01
SI 15:00:00 NR -16.32 56.09
SI 18:00:00 NR -16.49 56.18
SI 21:00:00 NR -16.67 56.27
SI 1894-01-14 00:00:00 NR -16.84 56.38
SI 03:00:00 NR -17.02 56.49
SI 06:00:00 NR -17.20 56.60
SI 09:00:00 NR -17.38 56.70
SI 12:00:00 NR -17.57 56.80
SI 15:00:00 NR -17.77 56.92
SI 18:00:00 NR -17.96 57.03
SI 21:00:00 NR -18.16 57.16
SI 1894-01-15 00:00:00 NR -18.37 57.30
SI 03:00:00 NR -18.58 57.44
SI 06:00:00 NR -18.80 57.60
SI 09:00:00 NR -19.01 57.76
SI 12:00:00 NR -19.23 57.93
SI 15:00:00 NR -19.45 58.12
SI 18:00:00 NR -19.68 58.31
SI 21:00:00 NR -19.92 58.52
SI 1894-01-16 00:00:00 NR -20.17 58.73
SI 03:00:00 NR -20.43 58.96
SI 06:00:00 NR -20.70 59.20
SI 09:00:00 NR -20.99 59.45
SI 12:00:00 NR -21.29 59.71
SI 15:00:00 NR -21.60 59.98
SI 18:00:00 NR -21.91 60.25
SI 21:00:00 NR -22.23 60.54
SI 1894-01-17 00:00:00 NR -22.56 60.83
SI 03:00:00 NR -22.88 61.11
SI 06:00:00 NR -23.20 61.40
SI 09:00:00 NR -23.54 61.70
SI 12:00:00 NR -23.88 62.01
SI 15:00:00 NR -24.22 62.32
SI 18:00:00 NR -24.54 62.62
SI 21:00:00 NR -24.85 62.90
SI 1894-01-18 00:00:00 NR -25.13 63.16
SI 03:00:00 NR -25.39 63.40
SI 06:00:00 NR -25.60 63.60
SI 09:00:00 NR -25.77 63.76
SI 12:00:00 NR -25.90 63.89
SI 15:00:00 NR -26.00 63.99
SI 18:00:00 NR -26.08 64.06
SI 21:00:00 NR -26.13 64.12
SI 1894-01-19 00:00:00 NR -26.16 64.15
SI 03:00:00 NR -26.18 64.18
SI 06:00:00 NR -26.20 64.20

Source Information

Agency Information
USA
TOKYO
CMA
HKO
NEWDELHI
REUNION WMO-Best-Tracks.txt:Line=1674:xxxx894245
BOM
NADI
WELLINGTON
DS824
TD9636
TD9635
NEUMANN
MLC

All available IBTrACS Data

SEASON BASIN SUBBASIN ISO_TIME_________ NATURE LAT LON WMO AGENCY DIST2LAND LANDFALL IFLAG USA SSHS REUNION LAT REUNION LON REUNION TYPE REUNION TNUM STORM SPEED STORM DIR
Year degrees north degrees east km km 1 degrees north degrees east 1 kts degrees
1894 SI MM 1894-01-11 06:00:00 NR -13.00 56.60 reunion 702 688 _____O________ -1 -13.00 56.60 99 9.90 4 213
1894 SI MM 09:00:00 NR -13.16 56.50 684 670 _____P________ -1 -13.16 56.50 99 4 213
1894 SI MM 12:00:00 NR -13.31 56.39 670 653 _____P________ -1 -13.31 56.39 99 4 212
1894 SI MM 15:00:00 NR -13.47 56.29 653 639 _____P________ -1 -13.47 56.29 99 4 211
1894 SI MM 18:00:00 NR -13.63 56.20 639 623 _____P________ -1 -13.63 56.20 99 4 209
1894 SI MM 21:00:00 NR -13.79 56.11 623 609 _____P________ -1 -13.79 56.11 99 4 207
1894 SI MM 1894-01-12 00:00:00 NR -13.96 56.03 607 604 _____P________ -1 -13.96 56.03 99 4 204
1894 SI MM 03:00:00 NR -14.13 55.96 604 589 _____P________ -1 -14.13 55.96 99 4 200
1894 SI MM 06:00:00 NR -14.30 55.90 reunion 589 585 _____O________ -1 -14.30 55.90 99 9.90 4 196
1894 SI MM 09:00:00 NR -14.48 55.85 585 572 _____P________ -1 -14.48 55.85 99 4 192
1894 SI MM 12:00:00 NR -14.66 55.82 572 571 _____P________ -1 -14.66 55.82 99 4 189
1894 SI MM 15:00:00 NR -14.85 55.80 570 569 _____P________ -1 -14.85 55.80 99 4 0
1894 SI MM 18:00:00 NR -15.04 55.80 569 568 _____P________ -1 -15.04 55.80 99 4 177
1894 SI MM 21:00:00 NR -15.23 55.80 568 555 _____P________ -1 -15.23 55.80 99 4 0
1894 SI MM 1894-01-13 00:00:00 NR -15.42 55.82 555 531 _____P________ -1 -15.42 55.82 99 4 172
1894 SI MM 03:00:00 NR -15.61 55.85 531 510 _____P________ -1 -15.61 55.85 99 4 169
1894 SI MM 06:00:00 NR -15.80 55.90 reunion 510 488 _____O________ -1 -15.80 55.90 99 9.90 4 166
1894 SI MM 09:00:00 NR -15.98 55.95 488 474 _____P________ -1 -15.98 55.95 99 4 163
1894 SI MM 12:00:00 NR -16.15 56.01 474 450 _____P________ -1 -16.15 56.01 99 4 159
1894 SI MM 15:00:00 NR -16.32 56.09 450 425 _____P________ -1 -16.32 56.09 99 4 155
1894 SI MM 18:00:00 NR -16.49 56.18 425 400 _____P________ -1 -16.49 56.18 99 4 153
1894 SI MM 21:00:00 NR -16.67 56.27 400 387 _____P________ -1 -16.67 56.27 99 4 151
1894 SI MM 1894-01-14 00:00:00 NR -16.84 56.38 387 362 _____P________ -1 -16.84 56.38 99 4 150
1894 SI MM 03:00:00 NR -17.02 56.49 362 338 _____P________ -1 -17.02 56.49 99 4 149
1894 SI MM 06:00:00 NR -17.20 56.60 reunion 338 313 _____O________ -1 -17.20 56.60 99 9.90 4 151
1894 SI MM 09:00:00 NR -17.38 56.70 313 289 _____P________ -1 -17.38 56.70 99 4 153
1894 SI MM 12:00:00 NR -17.57 56.80 289 264 _____P________ -1 -17.57 56.80 99 4 151
1894 SI MM 15:00:00 NR -17.77 56.92 264 240 _____P________ -1 -17.77 56.92 99 4 151
1894 SI MM 18:00:00 NR -17.96 57.03 240 214 _____P________ -1 -17.96 57.03 99 5 150
1894 SI MM 21:00:00 NR -18.16 57.16 214 191 _____P________ -1 -18.16 57.16 99 5 149
1894 SI MM 1894-01-15 00:00:00 NR -18.37 57.30 191 168 _____P________ -1 -18.37 57.30 99 5 147
1894 SI MM 03:00:00 NR -18.58 57.44 168 145 _____P________ -1 -18.58 57.44 99 5 146
1894 SI MM 06:00:00 NR -18.80 57.60 reunion 145 123 _____O________ -1 -18.80 57.60 99 9.90 5 145
1894 SI MM 09:00:00 NR -19.01 57.76 123 102 _____P________ -1 -19.01 57.76 99 5 144
1894 SI MM 12:00:00 NR -19.23 57.93 102 84 _____P________ -1 -19.23 57.93 99 6 143
1894 SI MM 15:00:00 NR -19.45 58.12 79 76 _____P________ -1 -19.45 58.12 99 6 142
1894 SI MM 18:00:00 NR -19.68 58.31 77 77 _____P________ -1 -19.68 58.31 99 6 141
1894 SI MM 21:00:00 NR -19.92 58.52 85 85 _____P________ -1 -19.92 58.52 99 6 141
1894 SI MM 1894-01-16 00:00:00 NR -20.17 58.73 94 94 _____P________ -1 -20.17 58.73 99 7 141
1894 SI MM 03:00:00 NR -20.43 58.96 125 125 _____P________ -1 -20.43 58.96 99 7 141
1894 SI MM 06:00:00 NR -20.70 59.20 reunion 152 152 _____O________ -1 -20.70 59.20 99 9.90 7 141
1894 SI MM 09:00:00 NR -20.99 59.45 183 183 _____P________ -1 -20.99 59.45 99 8 141
1894 SI MM 12:00:00 NR -21.29 59.71 226 226 _____P________ -1 -21.29 59.71 99 8 141
1894 SI MM 15:00:00 NR -21.60 59.98 268 268 _____P________ -1 -21.60 59.98 99 8 141
1894 SI MM 18:00:00 NR -21.91 60.25 311 311 _____P________ -1 -21.91 60.25 99 8 141
1894 SI MM 21:00:00 NR -22.23 60.54 346 346 _____P________ -1 -22.23 60.54 99 8 141
1894 SI MM 1894-01-17 00:00:00 NR -22.56 60.83 397 397 _____P________ -1 -22.56 60.83 99 8 141
1894 SI MM 03:00:00 NR -22.88 61.11 441 441 _____P________ -1 -22.88 61.11 99 8 141
1894 SI MM 06:00:00 NR -23.20 61.40 reunion 486 486 _____O________ -1 -23.20 61.40 99 9.90 9 141
1894 SI MM 09:00:00 NR -23.54 61.70 531 531 _____P________ -1 -23.54 61.70 99 9 140
1894 SI MM 12:00:00 NR -23.88 62.01 583 583 _____P________ -1 -23.88 62.01 99 9 140
1894 SI MM 15:00:00 NR -24.22 62.32 628 628 _____P________ -1 -24.22 62.32 99 9 140
1894 SI MM 18:00:00 NR -24.54 62.62 673 673 _____P________ -1 -24.54 62.62 99 8 140
1894 SI MM 21:00:00 NR -24.85 62.90 725 725 _____P________ -1 -24.85 62.90 99 8 140
1894 SI MM 1894-01-18 00:00:00 NR -25.13 63.16 762 762 _____P________ -1 -25.13 63.16 99 7 140
1894 SI MM 03:00:00 NR -25.39 63.40 799 799 _____P________ -1 -25.39 63.40 99 6 140
1894 SI MM 06:00:00 NR -25.60 63.60 reunion 829 829 _____O________ -1 -25.60 63.60 99 9.90 5 140
1894 SI MM 09:00:00 NR -25.77 63.76 859 859 _____P________ -1 -25.77 63.76 99 4 139
1894 SI MM 12:00:00 NR -25.90 63.89 874 874 _____P________ -1 -25.90 63.89 99 3 138
1894 SI MM 15:00:00 NR -26.00 63.99 889 889 _____P________ -1 -26.00 63.99 99 2 138
1894 SI MM 18:00:00 NR -26.08 64.06 904 904 _____P________ -1 -26.08 64.06 99 2 137
1894 SI MM 21:00:00 NR -26.13 64.12 904 904 _____P________ -1 -26.13 64.12 99 1 138
1894 SI MM 1894-01-19 00:00:00 NR -26.16 64.15 919 919 _____P________ -1 -26.16 64.15 99 1 135
1894 SI MM 03:00:00 NR -26.18 64.18 919 919 _____P________ -1 -26.18 64.18 99 1 135
1894 SI MM 06:00:00 NR -26.20 64.20 reunion 919 _____O________ -1 -26.20 64.20 99 9.90 1 0